createdAt,value
2018-08-24T00:01:55.551Z,20.90
2018-08-24T00:04:23.818Z,20.90
2018-08-24T00:06:52.212Z,20.90
2018-08-24T00:09:23.364Z,20.90
2018-08-24T00:11:51.482Z,20.90
2018-08-24T00:14:19.887Z,21.00
2018-08-24T00:16:48.405Z,21.00
2018-08-24T00:19:17.230Z,21.00
2018-08-24T00:21:46.244Z,21.00
2018-08-24T00:24:15.195Z,21.00
2018-08-24T00:26:43.626Z,21.00
2018-08-24T00:29:15.306Z,21.00
2018-08-24T00:31:43.716Z,21.00
2018-08-24T00:34:12.177Z,21.00
2018-08-24T00:36:40.474Z,21.00
2018-08-24T00:39:09.318Z,21.00
2018-08-24T00:41:37.573Z,21.00
2018-08-24T00:44:06.173Z,21.00
2018-08-24T00:46:34.700Z,21.00
2018-08-24T00:49:02.999Z,20.90
2018-08-24T00:51:31.487Z,20.90
2018-08-24T00:54:04.507Z,20.90
2018-08-24T00:56:32.910Z,20.90
2018-08-24T00:59:01.299Z,20.90
2018-08-24T01:01:29.606Z,20.90
2018-08-24T01:03:57.879Z,20.90
2018-08-24T01:06:26.508Z,20.80
2018-08-24T01:08:54.997Z,20.80
2018-08-24T01:11:28.574Z,20.70
2018-08-24T01:13:56.877Z,20.80
2018-08-24T01:16:32.826Z,20.70
2018-08-24T01:19:03.856Z,20.70
2018-08-24T01:21:32.221Z,20.70
2018-08-24T01:24:00.634Z,20.70
2018-08-24T01:26:29.252Z,20.60
2018-08-24T01:28:57.755Z,20.60
2018-08-24T01:31:26.159Z,20.60
2018-08-24T01:33:54.451Z,20.60
2018-08-24T01:36:22.743Z,20.50
2018-08-24T01:38:51.129Z,20.50
2018-08-24T01:41:19.431Z,20.50
2018-08-24T01:43:48.559Z,20.50
2018-08-24T01:46:17.066Z,20.40
2018-08-24T01:48:45.569Z,20.40
2018-08-24T01:51:13.838Z,20.40
2018-08-24T01:53:42.242Z,20.30
2018-08-24T01:56:11.832Z,20.30
2018-08-24T01:58:40.166Z,20.30
2018-08-24T02:01:08.386Z,20.30
2018-08-24T02:03:36.662Z,20.30
2018-08-24T02:06:07.454Z,20.30
2018-08-24T02:08:36.481Z,20.30
2018-08-24T02:11:11.449Z,20.30
2018-08-24T02:13:46.737Z,20.40
2018-08-24T02:16:15.067Z,20.40
2018-08-24T02:18:48.772Z,20.40
2018-08-24T02:21:22.801Z,20.40
2018-08-24T02:23:51.080Z,20.50
2018-08-24T02:26:19.489Z,20.50
2018-08-24T02:28:47.865Z,20.50
2018-08-24T02:31:16.356Z,20.50
2018-08-24T02:33:44.799Z,20.50
2018-08-24T02:36:13.053Z,20.60
2018-08-24T02:38:44.759Z,20.60
2018-08-24T02:41:13.226Z,20.60
2018-08-24T02:43:41.646Z,20.50
2018-08-24T02:46:10.234Z,20.60
2018-08-24T02:48:38.750Z,20.60
2018-08-24T02:51:07.468Z,20.60
2018-08-24T02:53:35.881Z,20.60
2018-08-24T02:56:04.468Z,20.60
2018-08-24T02:58:33.060Z,20.60
2018-08-24T03:01:01.680Z,20.60
2018-08-24T03:03:29.971Z,20.60
2018-08-24T03:05:58.372Z,20.60
2018-08-24T03:08:26.836Z,20.60
2018-08-24T03:10:55.056Z,20.60
2018-08-24T03:13:23.375Z,20.60
2018-08-24T03:15:51.871Z,20.60
2018-08-24T03:18:20.177Z,20.60
2018-08-24T03:20:52.213Z,20.60
2018-08-24T03:23:20.623Z,20.60
2018-08-24T03:25:49.743Z,20.60
2018-08-24T03:28:18.775Z,20.50
2018-08-24T03:30:47.161Z,20.50
2018-08-24T03:33:15.595Z,20.50
2018-08-24T03:35:44.046Z,20.50
2018-08-24T03:38:16.044Z,20.50
2018-08-24T03:40:44.447Z,20.40
2018-08-24T03:43:13.358Z,20.40
2018-08-24T03:45:41.775Z,20.40
2018-08-24T03:48:11.291Z,20.30
2018-08-24T03:50:39.696Z,20.40
2018-08-24T03:53:08.212Z,20.30
2018-08-24T03:55:38.588Z,20.30
2018-08-24T03:58:07.651Z,20.30
2018-08-24T04:00:36.024Z,20.30
2018-08-24T04:03:04.338Z,20.30
2018-08-24T04:05:33.062Z,20.30
2018-08-24T04:08:01.406Z,20.30
2018-08-24T04:10:29.861Z,20.20
2018-08-24T04:12:58.382Z,20.20
2018-08-24T04:15:26.753Z,20.10
2018-08-24T04:17:55.281Z,20.10
2018-08-24T04:20:23.670Z,20.10
2018-08-24T04:22:52.046Z,20.00
2018-08-24T04:25:20.458Z,19.90
2018-08-24T04:27:48.864Z,19.90
2018-08-24T04:30:17.230Z,19.80
2018-08-24T04:32:45.662Z,19.80
2018-08-24T04:35:17.336Z,19.80
2018-08-24T04:37:45.608Z,19.80
2018-08-24T04:40:14.139Z,19.80
2018-08-24T04:42:42.449Z,19.90
2018-08-24T04:45:14.934Z,19.90
2018-08-24T04:47:43.461Z,20.00
2018-08-24T04:50:12.720Z,20.00
2018-08-24T04:52:41.251Z,20.00
2018-08-24T04:55:09.651Z,20.00
2018-08-24T04:57:38.121Z,20.10
2018-08-24T05:00:08.037Z,20.10
2018-08-24T05:02:39.940Z,20.10
2018-08-24T05:05:08.770Z,20.20
2018-08-24T05:07:37.061Z,20.20
2018-08-24T05:10:08.944Z,20.30
2018-08-24T05:12:37.852Z,20.30
2018-08-24T05:15:06.542Z,20.40
2018-08-24T05:17:34.942Z,20.40
2018-08-24T05:20:03.462Z,20.40
2018-08-24T05:22:31.656Z,20.50
2018-08-24T05:25:00.057Z,20.50
2018-08-24T05:27:28.610Z,20.50
2018-08-24T05:29:58.982Z,20.60
2018-08-24T05:32:27.398Z,20.60
2018-08-24T05:34:55.800Z,20.70
2018-08-24T05:37:24.293Z,20.70
2018-08-24T05:39:52.621Z,20.80
2018-08-24T05:42:21.085Z,20.80
2018-08-24T05:44:49.419Z,20.90
2018-08-24T05:47:17.824Z,20.90
2018-08-24T05:49:46.616Z,20.90
2018-08-24T05:52:14.897Z,21.00
2018-08-24T05:54:43.397Z,21.00
2018-08-24T05:57:11.589Z,20.90
2018-08-24T05:59:40.523Z,20.90
2018-08-24T06:02:08.801Z,20.90
2018-08-24T06:04:37.301Z,20.90
2018-08-24T06:07:05.705Z,20.80
2018-08-24T06:09:37.907Z,20.80
2018-08-24T06:12:06.389Z,20.80
2018-08-24T06:14:34.717Z,20.80
2018-08-24T06:17:08.571Z,20.80
2018-08-24T06:19:37.054Z,20.90
2018-08-24T06:22:05.519Z,20.90
2018-08-24T06:24:36.190Z,21.00
2018-08-24T06:27:04.677Z,21.20
2018-08-24T06:29:32.976Z,21.40
2018-08-24T06:32:01.596Z,21.70
2018-08-24T06:34:30.286Z,22.10
2018-08-24T06:36:58.707Z,22.50
2018-08-24T06:39:27.113Z,22.90
2018-08-24T06:41:55.798Z,23.10
2018-08-24T06:44:24.193Z,23.30
2018-08-24T06:46:52.372Z,23.30
2018-08-24T06:49:20.566Z,23.30
2018-08-24T06:51:48.888Z,23.80
2018-08-24T06:54:17.483Z,24.90
2018-08-24T06:56:45.882Z,25.50
2018-08-24T06:59:14.156Z,25.50
2018-08-24T07:01:42.956Z,25.10
2018-08-24T07:04:11.478Z,24.70
2018-08-24T07:06:40.082Z,24.60
2018-08-24T07:09:09.028Z,25.10
2018-08-24T07:11:37.508Z,26.20
2018-08-24T07:14:05.997Z,27.40
2018-08-24T07:16:34.714Z,28.40
2018-08-24T07:19:03.138Z,28.90
2018-08-24T07:21:31.411Z,29.20
2018-08-24T07:23:59.914Z,29.60
2018-08-24T07:26:28.315Z,30.20
2018-08-24T07:28:56.594Z,31.00
2018-08-24T07:31:25.013Z,32.30
2018-08-24T07:33:53.415Z,33.80
2018-08-24T07:36:21.928Z,34.80
2018-08-24T07:38:50.621Z,36.00
2018-08-24T07:41:19.081Z,37.10
2018-08-24T07:43:47.631Z,38.20
2018-08-24T07:46:15.936Z,39.50
2018-08-24T07:48:44.322Z,40.50
2018-08-24T07:51:12.842Z,41.00
2018-08-24T07:53:41.216Z,41.70
2018-08-24T07:56:09.520Z,42.30
2018-08-24T07:58:38.027Z,42.10
2018-08-24T08:01:06.540Z,41.20
2018-08-24T08:03:35.028Z,39.70
2018-08-24T08:06:03.614Z,38.50
2018-08-24T08:08:32.108Z,38.00
2018-08-24T08:11:00.403Z,36.70
2018-08-24T08:13:28.838Z,35.10
2018-08-24T08:15:59.363Z,33.80
2018-08-24T08:18:27.930Z,33.40
2018-08-24T08:20:56.273Z,32.60
2018-08-24T08:23:24.677Z,31.90
2018-08-24T08:25:52.957Z,31.30
2018-08-24T08:28:21.215Z,30.70
2018-08-24T08:30:49.347Z,30.60
2018-08-24T08:33:17.669Z,31.20
2018-08-24T08:35:46.062Z,31.90
2018-08-24T08:38:14.442Z,32.10
2018-08-24T08:40:42.754Z,31.80
2018-08-24T08:43:11.359Z,31.40
2018-08-24T08:45:40.538Z,31.00
2018-08-24T08:48:09.088Z,31.10
2018-08-24T08:50:37.798Z,31.00
2018-08-24T08:53:06.448Z,30.90
2018-08-24T08:55:34.679Z,30.70
2018-08-24T08:58:03.400Z,30.60
2018-08-24T09:00:31.794Z,30.50
2018-08-24T09:03:00.196Z,30.40
2018-08-24T09:05:28.460Z,30.20
2018-08-24T09:07:56.921Z,30.00
2018-08-24T09:10:25.289Z,29.80
2018-08-24T09:12:53.836Z,29.50
2018-08-24T09:15:22.192Z,29.40
2018-08-24T09:17:55.889Z,29.40
2018-08-24T09:20:29.817Z,29.30
2018-08-24T09:23:03.527Z,29.00
2018-08-24T09:25:37.207Z,28.90
2018-08-24T09:28:11.509Z,28.80
2018-08-24T09:30:46.458Z,28.60
2018-08-24T09:33:14.857Z,28.50
2018-08-24T09:35:45.500Z,28.40
2018-08-24T09:38:13.905Z,28.30
2018-08-24T09:40:47.706Z,28.20
2018-08-24T09:43:21.375Z,28.20
2018-08-24T09:45:49.608Z,28.20
2018-08-24T09:48:23.302Z,28.20
2018-08-24T09:50:57.297Z,28.10
2018-08-24T09:53:31.092Z,28.10
2018-08-24T09:55:59.596Z,28.10
2018-08-24T09:58:28.547Z,28.10
2018-08-24T10:01:02.479Z,28.10
2018-08-24T10:03:36.308Z,28.10
2018-08-24T10:06:10.422Z,28.20
2018-08-24T10:08:43.965Z,28.30
2018-08-24T10:11:12.364Z,28.30
2018-08-24T10:13:40.897Z,28.10
2018-08-24T10:16:09.603Z,27.80
2018-08-24T10:18:37.794Z,27.70
2018-08-24T10:21:06.282Z,27.60
2018-08-24T10:23:34.858Z,27.40
2018-08-24T10:26:03.511Z,27.60
2018-08-24T10:28:32.084Z,27.70
2018-08-24T10:31:00.615Z,28.00
2018-08-24T10:33:29.007Z,28.10
2018-08-24T10:35:57.516Z,28.10
2018-08-24T10:38:28.156Z,28.00
2018-08-24T10:40:56.594Z,27.80
2018-08-24T10:43:25.176Z,27.60
2018-08-24T10:45:53.654Z,27.40
2018-08-24T10:48:21.871Z,27.30
2018-08-24T10:50:50.170Z,27.40
2018-08-24T10:53:18.667Z,27.40
2018-08-24T10:55:52.953Z,27.50
2018-08-24T10:58:21.310Z,27.40
2018-08-24T11:00:49.803Z,27.30
2018-08-24T11:03:18.403Z,27.20
2018-08-24T11:05:50.193Z,27.00
2018-08-24T11:08:18.366Z,27.10
2018-08-24T11:10:46.450Z,27.20
2018-08-24T11:13:14.748Z,27.20
2018-08-24T11:15:48.092Z,27.20
2018-08-24T11:18:16.676Z,27.30
2018-08-24T11:20:45.083Z,27.30
2018-08-24T11:23:13.574Z,27.20
2018-08-24T11:25:42.648Z,27.30
2018-08-24T11:28:11.202Z,27.30
2018-08-24T11:30:39.587Z,27.30
2018-08-24T11:33:08.106Z,27.30
2018-08-24T11:35:37.528Z,27.30
2018-08-24T11:38:05.928Z,27.40
2018-08-24T11:40:34.228Z,27.50
2018-08-24T11:43:02.485Z,27.60
2018-08-24T11:45:35.218Z,27.80
2018-08-24T11:48:03.696Z,27.80
2018-08-24T11:50:31.982Z,27.70
2018-08-24T11:53:00.533Z,27.50
2018-08-24T11:55:29.119Z,27.30
2018-08-24T11:57:57.827Z,27.20
2018-08-24T12:00:34.472Z,27.20
2018-08-24T12:03:03.523Z,27.30
2018-08-24T12:05:32.078Z,27.40
2018-08-24T12:08:00.777Z,27.60
2018-08-24T12:10:28.907Z,27.80
2018-08-24T12:12:57.730Z,27.80
2018-08-24T12:15:26.341Z,27.80
2018-08-24T12:18:00.041Z,27.70
2018-08-24T12:20:28.608Z,27.60
2018-08-24T12:22:57.057Z,27.60
2018-08-24T12:25:25.446Z,27.60
2018-08-24T12:27:53.933Z,27.80
2018-08-24T12:30:22.472Z,27.80
2018-08-24T12:32:50.930Z,27.80
2018-08-24T12:35:19.672Z,27.70
2018-08-24T12:37:52.175Z,27.60
2018-08-24T12:40:20.467Z,27.40
2018-08-24T12:42:48.857Z,27.40
2018-08-24T12:45:17.394Z,27.20
2018-08-24T12:47:45.744Z,27.10
2018-08-24T12:50:14.070Z,27.00
2018-08-24T12:52:42.740Z,27.00
2018-08-24T12:55:11.291Z,27.00
2018-08-24T12:57:40.381Z,27.00
2018-08-24T13:00:10.801Z,27.10
2018-08-24T13:02:39.324Z,27.00
2018-08-24T13:05:49.511Z,27.00
2018-08-24T13:08:18.061Z,26.90
2018-08-24T13:10:46.473Z,27.00
2018-08-24T13:13:14.836Z,27.00
2018-08-24T13:15:43.023Z,27.00
2018-08-24T13:18:11.440Z,27.00
2018-08-24T13:20:39.740Z,27.00
2018-08-24T13:23:08.437Z,27.00
2018-08-24T13:25:36.732Z,27.00
2018-08-24T13:28:05.152Z,27.00
2018-08-24T13:30:33.680Z,27.00
2018-08-24T13:33:01.952Z,26.90
2018-08-24T13:35:30.330Z,26.90
2018-08-24T13:37:58.759Z,26.80
2018-08-24T13:40:27.223Z,26.60
2018-08-24T13:42:56.164Z,26.60
2018-08-24T13:45:24.799Z,26.60
2018-08-24T13:47:53.018Z,26.60
2018-08-24T13:50:21.485Z,26.50
2018-08-24T13:52:49.638Z,26.20
2018-08-24T13:55:18.169Z,25.90
2018-08-24T13:57:46.570Z,25.50
2018-08-24T14:00:15.272Z,25.40
2018-08-24T14:02:43.762Z,25.30
2018-08-24T14:05:12.119Z,25.30
2018-08-24T14:07:40.358Z,25.30
2018-08-24T14:10:08.883Z,25.30
2018-08-24T14:12:37.382Z,25.30
2018-08-24T14:15:05.795Z,25.20
2018-08-24T14:17:33.956Z,25.20
2018-08-24T14:20:06.844Z,25.20
2018-08-24T14:22:35.371Z,25.20
2018-08-24T14:25:03.973Z,25.10
2018-08-24T14:27:32.490Z,25.10
2018-08-24T14:30:01.086Z,25.20
2018-08-24T14:32:29.558Z,25.30
2018-08-24T14:34:58.080Z,25.40
2018-08-24T14:37:26.505Z,25.30
2018-08-24T14:39:58.474Z,25.10
2018-08-24T14:42:26.863Z,25.00
2018-08-24T14:44:55.143Z,24.90
2018-08-24T14:47:23.635Z,24.90
2018-08-24T14:49:51.815Z,24.80
2018-08-24T14:52:20.740Z,24.60
2018-08-24T14:54:49.301Z,24.40
2018-08-24T14:57:17.833Z,24.10
2018-08-24T14:59:47.243Z,23.90
2018-08-24T15:02:15.788Z,23.60
2018-08-24T15:04:44.295Z,23.40
2018-08-24T15:07:12.692Z,23.10
2018-08-24T15:09:50.969Z,23.00
2018-08-24T15:12:19.422Z,22.90
2018-08-24T15:14:48.127Z,22.90
2018-08-24T15:17:16.510Z,22.90
2018-08-24T15:19:44.796Z,22.80
2018-08-24T15:22:13.216Z,22.80
2018-08-24T15:24:41.619Z,22.80
2018-08-24T15:27:10.026Z,22.70
2018-08-24T15:29:38.532Z,22.50
2018-08-24T15:32:07.003Z,22.40
2018-08-24T15:34:40.631Z,22.30
2018-08-24T15:37:09.024Z,22.10
2018-08-24T15:39:37.329Z,22.00
2018-08-24T15:42:06.154Z,21.90
2018-08-24T15:44:39.345Z,21.90
2018-08-24T15:47:07.864Z,21.80
2018-08-24T15:49:36.984Z,21.70
2018-08-24T15:52:05.598Z,21.60
2018-08-24T15:54:34.535Z,21.40
2018-08-24T15:57:02.716Z,21.20
2018-08-24T15:59:30.968Z,21.10
2018-08-24T16:01:59.364Z,20.90
2018-08-24T16:04:27.676Z,20.80
2018-08-24T16:06:56.060Z,20.70
2018-08-24T16:09:24.489Z,20.60
2018-08-24T16:11:52.953Z,20.40
2018-08-24T16:14:21.485Z,20.30
2018-08-24T16:16:49.989Z,20.20
2018-08-24T16:19:18.486Z,20.10
2018-08-24T16:21:53.991Z,20.00
2018-08-24T16:24:22.227Z,19.90
2018-08-24T16:26:50.433Z,19.80
2018-08-24T16:29:19.138Z,19.70
2018-08-24T16:31:49.781Z,19.60
2018-08-24T16:34:18.293Z,19.50
2018-08-24T16:36:46.742Z,19.40
2018-08-24T16:39:15.399Z,19.40
2018-08-24T16:41:43.898Z,19.30
2018-08-24T16:44:12.280Z,19.30
2018-08-24T16:46:40.708Z,19.20
2018-08-24T16:49:09.648Z,19.20
2018-08-24T16:51:37.908Z,19.20
2018-08-24T16:54:06.089Z,19.20
2018-08-24T16:56:35.516Z,19.30
2018-08-24T16:59:03.918Z,19.30
2018-08-24T17:01:32.304Z,19.30
2018-08-24T17:04:00.548Z,19.30
2018-08-24T17:06:29.019Z,19.30
2018-08-24T17:08:58.626Z,19.20
2018-08-24T17:11:27.075Z,19.20
2018-08-24T17:14:04.671Z,19.20
2018-08-24T17:16:34.433Z,19.10
2018-08-24T17:19:03.073Z,19.20
2018-08-24T17:21:33.653Z,19.20
2018-08-24T17:24:02.239Z,19.20
2018-08-24T17:26:30.527Z,19.20
2018-08-24T17:29:17.992Z,19.30
2018-08-24T17:31:46.471Z,19.20
2018-08-24T17:34:14.743Z,19.20
2018-08-24T17:36:43.162Z,19.20
2018-08-24T17:39:12.208Z,19.10
2018-08-24T17:41:40.480Z,19.10
2018-08-24T17:44:08.878Z,19.10
2018-08-24T17:46:37.579Z,19.00
2018-08-24T17:49:06.121Z,18.90
2018-08-24T17:51:34.589Z,18.90
2018-08-24T17:54:03.074Z,18.90
2018-08-24T17:56:31.689Z,18.80
2018-08-24T17:59:00.065Z,18.90
2018-08-24T18:01:28.701Z,18.80
2018-08-24T18:03:57.195Z,18.70
2018-08-24T18:06:25.633Z,18.60
2018-08-24T18:08:54.093Z,18.60
2018-08-24T18:11:22.391Z,18.50
2018-08-24T18:13:50.775Z,18.40
2018-08-24T18:16:19.180Z,18.40
2018-08-24T18:18:47.720Z,18.40
2018-08-24T18:21:16.180Z,18.30
2018-08-24T18:23:44.499Z,18.30
2018-08-24T18:26:12.898Z,18.20
2018-08-24T18:28:41.506Z,18.20
2018-08-24T18:31:09.909Z,18.10
2018-08-24T18:33:38.605Z,18.10
2018-08-24T18:36:09.277Z,18.00
2018-08-24T18:38:38.432Z,17.90
2018-08-24T18:41:07.893Z,17.80
2018-08-24T18:43:36.293Z,17.80
2018-08-24T18:46:04.813Z,17.70
2018-08-24T18:48:33.145Z,17.70
2018-08-24T18:51:01.594Z,17.70
2018-08-24T18:53:29.899Z,17.60
2018-08-24T18:55:58.497Z,17.60
2018-08-24T18:58:26.889Z,17.60
2018-08-24T19:00:55.485Z,17.60
2018-08-24T19:03:24.004Z,17.60
2018-08-24T19:05:52.287Z,17.60
2018-08-24T19:08:21.613Z,17.60
2018-08-24T19:10:55.216Z,17.50
2018-08-24T19:13:23.501Z,17.60
2018-08-24T19:15:51.724Z,17.50
2018-08-24T19:18:25.291Z,17.50
2018-08-24T19:20:59.063Z,17.50
2018-08-24T19:23:27.451Z,17.50
2018-08-24T19:25:55.846Z,17.40
2018-08-24T19:28:29.787Z,17.40
2018-08-24T19:30:58.078Z,17.30
2018-08-24T19:33:26.788Z,17.30
2018-08-24T19:35:55.225Z,17.30
2018-08-24T19:38:23.584Z,17.20
2018-08-24T19:40:57.408Z,17.20
2018-08-24T19:43:26.040Z,17.20
2018-08-24T19:45:54.395Z,17.10
2018-08-24T19:48:28.156Z,17.10
2018-08-24T19:50:56.513Z,17.00
2018-08-24T19:53:24.934Z,16.90
2018-08-24T19:55:53.433Z,16.90
2018-08-24T19:59:30.253Z,16.90
2018-08-24T20:01:58.458Z,16.90
2018-08-24T20:04:26.964Z,17.00
2018-08-24T20:07:00.801Z,17.10
2018-08-24T20:09:34.690Z,17.10
2018-08-24T20:12:03.152Z,17.10
2018-08-24T20:14:37.118Z,17.20
2018-08-24T20:17:10.983Z,17.20
2018-08-24T20:19:39.436Z,17.20
2018-08-24T20:22:09.081Z,17.20
2018-08-24T20:24:37.659Z,17.20
2018-08-24T20:27:05.834Z,17.10
2018-08-24T20:29:34.349Z,17.10
2018-08-24T20:32:02.986Z,17.10
2018-08-24T20:34:31.484Z,17.10
2018-08-24T20:36:59.879Z,17.00
2018-08-24T20:39:28.373Z,17.00
2018-08-24T20:41:56.901Z,17.00
2018-08-24T20:44:25.255Z,17.00
2018-08-24T20:46:53.779Z,17.00
2018-08-24T20:49:22.180Z,16.90
2018-08-24T20:51:50.455Z,16.90
2018-08-24T20:54:18.879Z,16.90
2018-08-24T20:56:47.299Z,16.90
2018-08-24T20:59:15.879Z,16.90
2018-08-24T21:01:44.179Z,16.80
2018-08-24T21:04:12.724Z,16.80
2018-08-24T21:06:41.066Z,16.80
2018-08-24T21:09:10.149Z,16.80
2018-08-24T21:11:38.578Z,16.80
2018-08-24T21:14:07.105Z,16.90
2018-08-24T21:16:35.490Z,16.90
2018-08-24T21:19:03.913Z,16.90
2018-08-24T21:21:32.208Z,16.80
2018-08-24T21:24:00.584Z,16.70
2018-08-24T21:26:28.753Z,16.70
2018-08-24T21:28:57.173Z,16.70
2018-08-24T21:31:25.598Z,16.70
2018-08-24T21:33:54.008Z,16.70
2018-08-24T21:36:22.268Z,16.70
2018-08-24T21:38:50.576Z,16.70
2018-08-24T21:41:18.879Z,16.60
2018-08-24T21:43:48.399Z,16.60
2018-08-24T21:46:16.839Z,16.60
2018-08-24T21:48:45.182Z,16.60
2018-08-24T21:51:13.483Z,16.60
2018-08-24T21:53:42.697Z,16.70
2018-08-24T21:56:11.861Z,16.60
2018-08-24T21:58:41.017Z,16.60
2018-08-24T22:01:10.783Z,16.50
2018-08-24T22:03:39.575Z,16.50
2018-08-24T22:06:08.718Z,16.50
2018-08-24T22:08:37.738Z,16.60
2018-08-24T22:11:07.320Z,16.60
2018-08-24T22:13:36.030Z,16.60
2018-08-24T22:16:04.529Z,16.60
2018-08-24T22:18:33.574Z,16.60
2018-08-24T22:21:02.298Z,16.50
2018-08-24T22:23:31.715Z,16.50
2018-08-24T22:26:00.821Z,16.40
2018-08-24T22:28:29.707Z,16.40
2018-08-24T22:30:58.628Z,16.30
2018-08-24T22:33:28.159Z,16.20
2018-08-24T22:35:56.927Z,16.20
2018-08-24T22:38:25.589Z,16.20
2018-08-24T22:40:54.867Z,16.20
2018-08-24T22:43:29.456Z,16.20
2018-08-24T22:45:59.081Z,16.10
2018-08-24T22:48:28.144Z,16.10
2018-08-24T22:51:02.912Z,16.20
2018-08-24T22:53:31.722Z,16.20
2018-08-24T22:56:00.414Z,16.20
2018-08-24T22:58:29.477Z,16.10
2018-08-24T23:01:00.514Z,16.00
2018-08-24T23:03:29.540Z,16.00
2018-08-24T23:05:58.399Z,15.90
2018-08-24T23:08:28.263Z,15.80
2018-08-24T23:10:57.881Z,15.80
2018-08-24T23:13:27.149Z,15.80
2018-08-24T23:15:56.085Z,15.80
2018-08-24T23:18:24.805Z,15.80
2018-08-24T23:20:57.041Z,15.80
2018-08-24T23:23:26.549Z,15.80
2018-08-24T23:25:56.048Z,15.80
2018-08-24T23:28:25.544Z,15.80
2018-08-24T23:31:02.496Z,15.80
2018-08-24T23:33:31.174Z,15.80
2018-08-24T23:35:59.852Z,15.80
2018-08-24T23:38:29.507Z,15.80
2018-08-24T23:40:58.704Z,15.80
2018-08-24T23:43:27.986Z,15.80
2018-08-24T23:45:56.846Z,15.70
2018-08-24T23:48:30.518Z,15.70
2018-08-24T23:51:00.241Z,15.70
2018-08-24T23:53:29.678Z,15.60
2018-08-24T23:58:54.451Z,15.60
